createdAt,value
2022-10-28T00:01:19.678Z,20.20
2022-10-28T00:03:50.999Z,20.24
2022-10-28T00:06:32.338Z,20.26
2022-10-28T00:08:59.882Z,20.25
2022-10-28T00:11:29.490Z,20.30
2022-10-28T00:13:58.023Z,20.30
2022-10-28T00:16:32.130Z,20.18
2022-10-28T00:19:00.061Z,20.20
2022-10-28T00:21:29.887Z,20.24
2022-10-28T00:23:57.214Z,20.27
2022-10-28T00:26:27.342Z,20.33
2022-10-28T00:29:00.446Z,20.36
2022-10-28T00:31:31.465Z,20.39
2022-10-28T00:33:59.723Z,20.36
2022-10-28T00:36:34.054Z,20.31
2022-10-28T00:39:01.899Z,20.26
2022-10-28T00:41:35.759Z,20.18
2022-10-28T00:44:23.662Z,20.12
2022-10-28T00:46:53.281Z,20.04
2022-10-28T00:49:28.763Z,20.02
2022-10-28T00:52:00.278Z,20.02
2022-10-28T00:54:27.260Z,20.02
2022-10-28T00:57:04.846Z,20.12
2022-10-28T00:59:37.834Z,20.19
2022-10-28T01:02:06.555Z,20.15
2022-10-28T01:04:33.075Z,20.08
2022-10-28T01:07:01.706Z,20.07
2022-10-28T01:09:28.124Z,20.01
2022-10-28T01:12:09.662Z,19.88
2022-10-28T01:14:41.912Z,19.95
2022-10-28T01:17:11.156Z,20.02
2022-10-28T01:19:52.627Z,19.95
2022-10-28T01:22:33.942Z,19.84
2022-10-28T01:25:18.275Z,19.78
2022-10-28T01:28:06.704Z,19.71
2022-10-28T01:30:56.352Z,19.62
2022-10-28T01:33:36.730Z,19.55
2022-10-28T01:36:18.982Z,19.47
2022-10-28T01:38:51.627Z,19.46
2022-10-28T01:41:30.690Z,19.42
2022-10-28T01:44:04.141Z,19.34
2022-10-28T01:46:50.494Z,19.38
2022-10-28T01:49:20.746Z,19.40
2022-10-28T01:51:51.012Z,19.36
2022-10-28T01:54:20.679Z,19.34
2022-10-28T01:56:48.704Z,19.26
2022-10-28T01:59:22.462Z,19.23
2022-10-28T02:01:48.972Z,19.19
2022-10-28T02:04:15.545Z,19.13
2022-10-28T02:06:46.168Z,19.08
2022-10-28T02:09:24.504Z,19.05
2022-10-28T02:12:06.216Z,19.01
2022-10-28T02:15:17.514Z,18.96
2022-10-28T02:18:05.896Z,18.92
2022-10-28T02:20:53.471Z,18.90
2022-10-28T02:23:45.808Z,18.89
2022-10-28T02:26:22.405Z,18.86
2022-10-28T02:29:14.703Z,18.80
2022-10-28T02:31:58.528Z,18.78
2022-10-28T02:34:30.931Z,18.95
2022-10-28T02:37:02.433Z,19.05
2022-10-28T02:39:38.313Z,19.14
2022-10-28T02:42:12.506Z,19.11
2022-10-28T02:44:45.967Z,19.14
2022-10-28T02:47:19.385Z,19.05
2022-10-28T02:49:50.928Z,18.94
2022-10-28T02:52:26.024Z,18.83
2022-10-28T02:54:58.203Z,18.74
2022-10-28T02:57:41.606Z,18.67
2022-10-28T03:00:11.484Z,18.57
2022-10-28T03:02:39.829Z,18.51
2022-10-28T03:05:07.307Z,18.40
2022-10-28T03:07:34.089Z,18.34
2022-10-28T03:10:00.514Z,18.33
2022-10-28T03:12:26.950Z,18.24
2022-10-28T03:14:53.421Z,18.18
2022-10-28T03:17:19.847Z,18.11
2022-10-28T03:19:46.567Z,18.05
2022-10-28T03:22:13.161Z,17.99
2022-10-28T03:24:39.817Z,17.93
2022-10-28T03:27:06.423Z,17.90
2022-10-28T03:29:33.054Z,17.84
2022-10-28T03:31:59.680Z,17.83
2022-10-28T03:34:26.244Z,17.83
2022-10-28T03:36:53.003Z,17.81
2022-10-28T03:39:19.649Z,17.78
2022-10-28T03:41:46.379Z,17.73
2022-10-28T03:44:12.891Z,17.62
2022-10-28T03:46:39.392Z,17.55
2022-10-28T03:49:06.047Z,17.48
2022-10-28T03:51:32.563Z,17.41
2022-10-28T03:53:59.249Z,17.37
2022-10-28T03:56:25.801Z,17.37
2022-10-28T04:01:18.930Z,17.27
2022-10-28T04:03:45.544Z,17.24
2022-10-28T04:06:12.062Z,17.21
2022-10-28T04:08:39.250Z,17.19
2022-10-28T04:11:06.117Z,17.17
2022-10-28T04:13:32.696Z,17.20
2022-10-28T04:15:59.339Z,17.21
2022-10-28T04:18:26.020Z,17.20
2022-10-28T04:20:52.651Z,17.19
2022-10-28T04:23:22.117Z,17.16
2022-10-28T04:25:53.166Z,17.15
2022-10-28T04:28:25.395Z,17.16
2022-10-28T04:30:52.112Z,17.15
2022-10-28T04:33:22.570Z,17.13
2022-10-28T04:35:49.194Z,17.11
2022-10-28T04:38:15.693Z,17.08
2022-10-28T04:40:42.379Z,17.04
2022-10-28T04:43:10.193Z,16.99
2022-10-28T04:45:37.418Z,16.97
2022-10-28T04:48:04.086Z,16.93
2022-10-28T04:50:30.902Z,16.88
2022-10-28T04:52:57.351Z,16.84
2022-10-28T04:55:23.831Z,16.79
2022-10-28T04:57:57.629Z,16.72
2022-10-28T05:00:30.050Z,16.67
2022-10-28T05:02:57.182Z,16.64
2022-10-28T05:05:23.835Z,16.60
2022-10-28T05:07:50.328Z,16.58
2022-10-28T05:10:17.980Z,16.54
2022-10-28T05:12:45.954Z,16.50
2022-10-28T05:15:13.772Z,16.48
2022-10-28T05:17:48.816Z,16.48
2022-10-28T05:20:17.503Z,16.48
2022-10-28T05:22:55.794Z,16.44
2022-10-28T05:25:23.083Z,16.37
2022-10-28T05:27:49.876Z,16.31
2022-10-28T05:30:16.648Z,16.25
2022-10-28T05:32:43.943Z,16.24
2022-10-28T05:35:10.918Z,16.19
2022-10-28T05:37:37.668Z,16.21
2022-10-28T05:40:04.744Z,16.18
2022-10-28T05:42:31.237Z,16.19
2022-10-28T05:44:57.672Z,16.17
2022-10-28T05:47:24.111Z,16.15
2022-10-28T05:49:50.550Z,16.14
2022-10-28T05:52:17.026Z,16.15
2022-10-28T05:54:43.472Z,16.16
2022-10-28T05:57:09.918Z,16.14
2022-10-28T05:59:36.324Z,16.10
2022-10-28T06:02:03.268Z,16.03
2022-10-28T06:04:31.004Z,16.04
2022-10-28T06:06:57.380Z,16.08
2022-10-28T06:09:23.855Z,16.08
2022-10-28T06:11:48.751Z,16.11
2022-10-28T06:14:15.164Z,16.11
2022-10-28T06:16:42.281Z,16.12
2022-10-28T06:19:08.742Z,16.12
2022-10-28T06:21:35.150Z,16.12
2022-10-28T06:24:01.646Z,16.13
2022-10-28T06:26:28.078Z,16.12
2022-10-28T06:28:54.565Z,16.09
2022-10-28T06:31:20.995Z,16.14
2022-10-28T06:33:47.427Z,16.13
2022-10-28T06:36:13.856Z,16.13
2022-10-28T06:38:40.445Z,16.14
2022-10-28T06:41:06.860Z,16.21
2022-10-28T06:43:33.356Z,16.21
2022-10-28T06:46:01.600Z,16.22
2022-10-28T06:48:29.713Z,16.24
2022-10-28T06:50:57.768Z,16.27
2022-10-28T06:53:25.671Z,16.31
2022-10-28T06:55:56.836Z,16.35
2022-10-28T06:58:24.265Z,16.39
2022-10-28T07:00:51.705Z,16.43
2022-10-28T07:03:18.892Z,16.49
2022-10-28T07:05:46.889Z,16.64
2022-10-28T07:08:14.461Z,16.70
2022-10-28T07:10:42.145Z,16.89
2022-10-28T07:13:08.554Z,17.13
2022-10-28T07:15:35.028Z,17.45
2022-10-28T07:18:02.570Z,17.73
2022-10-28T07:20:31.897Z,17.88
2022-10-28T07:22:59.758Z,18.11
2022-10-28T07:25:28.298Z,18.24
2022-10-28T07:27:57.479Z,18.32
2022-10-28T07:30:24.550Z,18.45
2022-10-28T07:32:51.228Z,18.65
2022-10-28T07:35:18.124Z,18.85
2022-10-28T07:37:44.674Z,19.04
2022-10-28T07:40:11.624Z,19.18
2022-10-28T07:42:38.115Z,19.37
2022-10-28T07:45:05.369Z,19.49
2022-10-28T07:47:31.917Z,19.63
2022-10-28T07:49:58.363Z,19.80
2022-10-28T07:52:24.802Z,19.90
2022-10-28T07:54:52.048Z,19.92
2022-10-28T07:57:18.873Z,20.09
2022-10-28T07:59:45.557Z,20.18
2022-10-28T08:02:20.182Z,20.27
2022-10-28T08:04:46.987Z,20.35
2022-10-28T08:07:14.753Z,20.43
2022-10-28T08:09:41.511Z,20.42
2022-10-28T08:12:09.113Z,20.46
2022-10-28T08:14:35.730Z,20.52
2022-10-28T08:17:02.226Z,20.50
2022-10-28T08:19:28.657Z,20.54
2022-10-28T08:21:55.304Z,20.58
2022-10-28T08:24:22.095Z,20.57
2022-10-28T08:26:48.887Z,20.62
2022-10-28T08:29:15.424Z,20.66
2022-10-28T08:31:42.290Z,20.65
2022-10-28T08:34:08.926Z,20.67
2022-10-28T08:36:35.561Z,20.76
2022-10-28T08:39:03.011Z,20.80
2022-10-28T08:41:44.781Z,20.84
2022-10-28T08:44:11.291Z,20.95
2022-10-28T08:46:48.168Z,21.13
2022-10-28T08:49:17.995Z,21.16
2022-10-28T08:52:05.298Z,21.25
2022-10-28T08:54:36.789Z,21.35
2022-10-28T08:57:11.720Z,21.48
2022-10-28T08:59:41.346Z,21.56
2022-10-28T09:02:10.889Z,21.69
2022-10-28T09:04:43.531Z,21.78
2022-10-28T09:07:21.615Z,22.01
2022-10-28T09:09:50.169Z,22.09
2022-10-28T09:12:37.893Z,22.21
2022-10-28T09:15:23.062Z,22.26
2022-10-28T09:17:56.159Z,22.34
2022-10-28T09:20:40.770Z,22.49
2022-10-28T09:23:21.473Z,22.63
2022-10-28T09:26:09.042Z,22.81
2022-10-28T09:28:59.309Z,23.01
2022-10-28T09:31:46.687Z,23.07
2022-10-28T09:34:18.499Z,23.26
2022-10-28T09:37:00.628Z,23.24
2022-10-28T09:39:46.140Z,23.54
2022-10-28T09:42:35.946Z,23.71
2022-10-28T09:45:06.403Z,23.89
2022-10-28T09:47:40.143Z,23.98
2022-10-28T09:50:15.800Z,24.15
2022-10-28T09:52:59.208Z,24.31
2022-10-28T09:55:25.875Z,24.48
2022-10-28T09:57:52.728Z,24.57
2022-10-28T10:00:19.623Z,24.52
2022-10-28T10:02:46.161Z,24.57
2022-10-28T10:05:17.010Z,24.60
2022-10-28T10:08:14.189Z,24.69
2022-10-28T10:11:00.959Z,24.59
2022-10-28T10:13:30.006Z,24.66
2022-10-28T10:16:04.767Z,24.62
2022-10-28T10:18:35.302Z,24.67
2022-10-28T10:21:01.850Z,24.74
2022-10-28T10:23:34.765Z,24.96
2022-10-28T10:26:12.366Z,25.26
2022-10-28T10:28:43.019Z,25.26
2022-10-28T10:31:22.207Z,25.26
2022-10-28T10:33:51.709Z,25.44
2022-10-28T10:36:23.587Z,25.30
2022-10-28T10:38:57.822Z,25.44
2022-10-28T10:41:41.870Z,25.47
2022-10-28T10:44:20.519Z,25.70
2022-10-28T10:46:53.091Z,25.77
2022-10-28T10:49:19.474Z,26.01
2022-10-28T10:51:53.535Z,25.98
2022-10-28T10:54:20.685Z,26.01
2022-10-28T10:56:47.152Z,26.07
2022-10-28T10:59:27.918Z,26.04
2022-10-28T11:01:57.509Z,25.88
2022-10-28T11:04:28.213Z,25.88
2022-10-28T11:06:57.019Z,25.96
2022-10-28T11:09:37.061Z,26.21
2022-10-28T11:12:22.076Z,26.33
2022-10-28T11:15:11.441Z,26.52
2022-10-28T11:17:37.841Z,26.69
2022-10-28T11:20:31.021Z,26.75
2022-10-28T11:23:16.261Z,26.70
2022-10-28T11:25:50.447Z,26.69
2022-10-28T11:28:19.482Z,26.81
2022-10-28T11:30:56.004Z,27.16
2022-10-28T11:33:31.165Z,27.28
2022-10-28T11:36:23.398Z,27.42
2022-10-28T11:39:19.209Z,27.39
2022-10-28T11:41:51.718Z,27.32
2022-10-28T11:44:42.038Z,27.64
2022-10-28T11:47:27.693Z,28.14
2022-10-28T11:50:02.557Z,27.75
2022-10-28T11:52:29.036Z,27.34
2022-10-28T11:55:17.922Z,27.15
2022-10-28T11:58:28.271Z,27.14
2022-10-28T12:01:12.784Z,27.16
2022-10-28T12:03:58.531Z,27.89
2022-10-28T12:06:52.626Z,28.68
2022-10-28T12:09:22.051Z,29.03
2022-10-28T12:11:57.566Z,28.95
2022-10-28T12:14:32.949Z,28.77
2022-10-28T12:17:12.852Z,28.65
2022-10-28T12:20:03.851Z,29.02
2022-10-28T12:22:45.309Z,29.23
2022-10-28T12:25:19.553Z,29.23
2022-10-28T12:27:50.329Z,29.60
2022-10-28T12:30:26.479Z,29.73
2022-10-28T12:32:57.741Z,30.50
2022-10-28T12:35:28.023Z,30.56
2022-10-28T12:37:58.981Z,31.03
2022-10-28T12:40:31.288Z,30.36
2022-10-28T12:43:27.149Z,30.33
2022-10-28T12:45:56.303Z,30.26
2022-10-28T12:48:48.122Z,30.72
2022-10-28T12:51:29.011Z,30.69
2022-10-28T12:54:02.689Z,30.61
2022-10-28T12:56:59.653Z,30.48
2022-10-28T12:59:29.301Z,29.88
2022-10-28T13:01:56.825Z,30.13
2022-10-28T13:04:23.584Z,30.05
2022-10-28T13:07:21.217Z,29.66
2022-10-28T13:10:09.038Z,29.56
2022-10-28T13:12:54.655Z,29.33
2022-10-28T13:15:31.456Z,29.03
2022-10-28T13:18:29.015Z,28.80
2022-10-28T13:21:04.568Z,28.56
2022-10-28T13:23:40.620Z,27.97
2022-10-28T13:26:21.656Z,27.58
2022-10-28T13:28:51.526Z,27.73
2022-10-28T13:31:18.574Z,27.72
2022-10-28T13:33:52.846Z,27.75
2022-10-28T13:36:32.047Z,27.81
2022-10-28T13:39:01.998Z,27.47
2022-10-28T13:41:34.161Z,27.25
2022-10-28T13:44:20.108Z,27.16
2022-10-28T13:46:58.649Z,27.18
2022-10-28T13:49:35.053Z,27.18
2022-10-28T13:52:13.142Z,27.21
2022-10-28T13:54:39.498Z,27.41
2022-10-28T13:57:16.950Z,27.26
2022-10-28T13:59:54.448Z,27.60
2022-10-28T14:02:39.858Z,28.29
2022-10-28T14:05:12.451Z,28.43
2022-10-28T14:07:53.421Z,28.18
2022-10-28T14:10:22.733Z,28.09
2022-10-28T14:13:03.693Z,27.78
2022-10-28T14:15:40.819Z,27.28
2022-10-28T14:18:42.408Z,27.22
2022-10-28T14:21:11.231Z,26.96
2022-10-28T14:23:40.422Z,27.09
2022-10-28T14:26:06.898Z,27.03
2022-10-28T14:28:33.236Z,26.96
2022-10-28T14:31:08.933Z,26.76
2022-10-28T14:33:54.117Z,26.76
2022-10-28T14:36:20.764Z,26.38
2022-10-28T14:38:53.566Z,26.26
2022-10-28T14:41:39.076Z,26.29
2022-10-28T14:44:32.966Z,26.05
2022-10-28T14:47:20.758Z,25.91
2022-10-28T14:50:01.987Z,26.13
2022-10-28T14:52:31.603Z,25.96
2022-10-28T14:55:02.698Z,25.82
2022-10-28T14:57:33.920Z,25.80
2022-10-28T15:00:08.522Z,25.86
2022-10-28T15:02:38.375Z,25.79
2022-10-28T15:05:14.829Z,25.74
2022-10-28T15:07:42.353Z,25.80
2022-10-28T15:10:23.106Z,25.70
2022-10-28T15:12:50.587Z,25.80
2022-10-28T15:15:17.604Z,25.58
2022-10-28T15:17:44.436Z,25.66
2022-10-28T15:20:29.275Z,25.60
2022-10-28T15:23:19.111Z,25.52
2022-10-28T15:25:46.388Z,25.49
2022-10-28T15:28:14.317Z,25.39
2022-10-28T15:30:46.401Z,25.11
2022-10-28T15:33:40.755Z,25.20
2022-10-28T15:36:11.541Z,25.09
2022-10-28T15:38:47.113Z,24.93
2022-10-28T15:41:22.731Z,24.70
2022-10-28T15:44:03.249Z,24.56
2022-10-28T15:46:31.963Z,24.41
2022-10-28T15:49:01.619Z,24.50
2022-10-28T15:51:28.231Z,24.52
2022-10-28T15:54:09.590Z,24.36
2022-10-28T15:56:56.789Z,24.40
2022-10-28T15:59:25.473Z,24.36
2022-10-28T16:01:55.848Z,24.12
2022-10-28T16:04:22.506Z,24.11
2022-10-28T16:06:55.728Z,24.14
2022-10-28T16:09:32.317Z,23.96
2022-10-28T16:12:02.897Z,24.00
2022-10-28T16:14:45.892Z,23.99
2022-10-28T16:17:23.093Z,23.87
2022-10-28T16:19:54.486Z,23.88
2022-10-28T16:22:23.284Z,23.81
2022-10-28T16:24:50.990Z,23.80
2022-10-28T16:27:21.852Z,23.75
2022-10-28T16:29:48.868Z,23.63
2022-10-28T16:32:17.180Z,23.61
2022-10-28T16:34:43.638Z,23.67
2022-10-28T16:37:25.916Z,23.72
2022-10-28T16:39:52.856Z,23.69
2022-10-28T16:42:20.687Z,23.52
2022-10-28T16:44:47.981Z,23.51
2022-10-28T16:47:16.948Z,23.50
2022-10-28T16:49:43.570Z,23.52
2022-10-28T16:52:15.552Z,23.43
2022-10-28T16:54:45.024Z,23.37
2022-10-28T16:57:11.455Z,23.26
2022-10-28T16:59:37.920Z,23.28
2022-10-28T17:02:13.574Z,23.26
2022-10-28T17:04:40.115Z,23.20
2022-10-28T17:07:07.101Z,23.22
2022-10-28T17:09:33.505Z,23.07
2022-10-28T17:12:00.296Z,23.08
2022-10-28T17:14:26.691Z,23.04
2022-10-28T17:16:53.079Z,23.01
2022-10-28T17:19:19.468Z,22.97
2022-10-28T17:21:45.878Z,22.97
2022-10-28T17:24:12.273Z,22.88
2022-10-28T17:26:38.726Z,22.85
2022-10-28T17:29:05.194Z,22.74
2022-10-28T17:31:31.625Z,22.62
2022-10-28T17:33:58.305Z,22.53
2022-10-28T17:36:24.851Z,22.44
2022-10-28T17:38:51.287Z,22.33
2022-10-28T17:41:17.791Z,22.22
2022-10-28T17:43:44.225Z,22.21
2022-10-28T17:46:10.671Z,22.20
2022-10-28T17:48:37.122Z,22.16
2022-10-28T17:51:03.674Z,22.12
2022-10-28T17:53:30.106Z,22.08
2022-10-28T17:55:57.358Z,22.01
2022-10-28T17:58:24.193Z,21.97
2022-10-28T18:00:57.160Z,21.90
2022-10-28T18:03:23.751Z,21.82
2022-10-28T18:05:51.285Z,21.73
2022-10-28T18:08:17.986Z,21.67
2022-10-28T18:10:55.217Z,21.56
2022-10-28T18:13:31.544Z,21.51
2022-10-28T18:16:12.921Z,21.45
2022-10-28T18:18:42.412Z,21.38
2022-10-28T18:21:11.123Z,21.30
2022-10-28T18:23:38.254Z,21.20
2022-10-28T18:26:15.109Z,21.09
2022-10-28T18:28:43.127Z,21.02
2022-10-28T18:31:11.535Z,20.95
2022-10-28T18:33:38.849Z,20.92
2022-10-28T18:36:07.754Z,20.78
2022-10-28T18:38:45.731Z,20.68
2022-10-28T18:41:14.031Z,20.63
2022-10-28T18:43:41.370Z,20.62
2022-10-28T18:46:08.285Z,20.57
2022-10-28T18:48:35.267Z,20.53
2022-10-28T18:51:06.719Z,20.48
2022-10-28T18:53:56.777Z,20.41
2022-10-28T18:56:25.860Z,20.39
2022-10-28T18:59:03.584Z,20.34
2022-10-28T19:01:31.799Z,20.34
2022-10-28T19:04:02.836Z,20.31
2022-10-28T19:06:32.554Z,20.26
2022-10-28T19:09:04.458Z,20.21
2022-10-28T19:11:32.662Z,20.18
2022-10-28T19:14:04.165Z,20.12
2022-10-28T19:16:33.179Z,20.05
2022-10-28T19:19:03.671Z,20.03
2022-10-28T19:21:30.680Z,19.95
2022-10-28T19:23:57.337Z,19.91
2022-10-28T19:26:23.956Z,19.88
2022-10-28T19:28:51.643Z,19.83
2022-10-28T19:31:23.922Z,19.72
2022-10-28T19:33:52.436Z,19.72
2022-10-28T19:36:24.621Z,19.67
2022-10-28T19:38:53.661Z,19.65
2022-10-28T19:41:22.729Z,19.63
2022-10-28T19:43:56.887Z,19.57
2022-10-28T19:46:28.826Z,19.56
2022-10-28T19:48:57.984Z,19.54
2022-10-28T19:51:27.384Z,19.51
2022-10-28T19:53:56.343Z,19.49
2022-10-28T19:56:23.314Z,19.47
2022-10-28T19:58:58.368Z,19.47
2022-10-28T20:01:29.435Z,19.44
2022-10-28T20:03:56.720Z,19.44
2022-10-28T20:06:26.020Z,19.42
2022-10-28T20:08:52.539Z,19.43
2022-10-28T20:11:26.326Z,19.42
2022-10-28T20:14:01.966Z,19.42
2022-10-28T20:16:29.046Z,19.41
2022-10-28T20:18:57.677Z,19.42
2022-10-28T20:21:26.719Z,19.41
2022-10-28T20:23:55.612Z,19.42
2022-10-28T20:26:30.222Z,19.43
2022-10-28T20:28:58.168Z,19.45
2022-10-28T20:31:30.183Z,19.47
2022-10-28T20:34:03.474Z,19.46
2022-10-28T20:36:35.524Z,19.45
2022-10-28T20:39:16.599Z,19.45
2022-10-28T20:41:46.003Z,19.44
2022-10-28T20:44:12.797Z,19.41
2022-10-28T20:46:39.728Z,19.39
2022-10-28T20:49:08.831Z,19.31
2022-10-28T20:51:36.275Z,19.27
2022-10-28T20:54:03.094Z,19.23
2022-10-28T20:56:33.227Z,19.18
2022-10-28T20:59:00.599Z,19.17
2022-10-28T21:01:30.184Z,19.15
2022-10-28T21:04:02.613Z,19.11
2022-10-28T21:06:30.398Z,19.11
2022-10-28T21:08:58.186Z,19.07
2022-10-28T21:11:26.323Z,19.01
2022-10-28T21:13:55.376Z,18.96
2022-10-28T21:16:23.079Z,18.91
2022-10-28T21:18:50.206Z,18.87
2022-10-28T21:21:17.979Z,18.82
2022-10-28T21:23:44.900Z,18.81
2022-10-28T21:26:12.809Z,18.80
2022-10-28T21:28:42.568Z,18.76
2022-10-28T21:31:12.108Z,18.70
2022-10-28T21:33:38.942Z,18.67
2022-10-28T21:36:09.317Z,18.63
2022-10-28T21:38:36.126Z,18.62
2022-10-28T21:41:09.564Z,18.60
2022-10-28T21:43:37.964Z,18.59
2022-10-28T21:46:05.618Z,18.59
2022-10-28T21:48:33.644Z,18.59
2022-10-28T21:51:02.530Z,18.56
2022-10-28T21:53:32.630Z,18.54
2022-10-28T21:56:03.851Z,18.48
2022-10-28T21:58:30.736Z,18.52
2022-10-28T22:01:11.890Z,18.57
2022-10-28T22:03:38.783Z,18.53
2022-10-28T22:06:05.637Z,18.61
2022-10-28T22:08:32.330Z,18.62
2022-10-28T22:11:11.480Z,18.65
2022-10-28T22:13:37.944Z,18.64
2022-10-28T22:16:13.742Z,18.60
2022-10-28T22:18:40.237Z,18.64
2022-10-28T22:21:15.806Z,18.62
2022-10-28T22:23:42.854Z,18.61
2022-10-28T22:26:12.168Z,18.58
2022-10-28T22:28:38.924Z,18.58
2022-10-28T22:31:08.278Z,18.59
2022-10-28T22:33:35.345Z,18.59
2022-10-28T22:36:13.669Z,18.62
2022-10-28T22:38:41.058Z,18.62
2022-10-28T22:41:20.359Z,18.61
2022-10-28T22:43:50.336Z,18.60
2022-10-28T22:46:18.135Z,18.61
2022-10-28T22:48:45.146Z,18.62
2022-10-28T22:51:12.566Z,18.61
2022-10-28T22:53:39.759Z,18.65
2022-10-28T22:56:08.057Z,18.65
2022-10-28T22:58:34.927Z,18.70
2022-10-28T23:01:20.454Z,18.69
2022-10-28T23:03:48.898Z,18.75
2022-10-28T23:06:18.172Z,18.74
2022-10-28T23:08:45.088Z,18.73
2022-10-28T23:11:12.806Z,18.69
2022-10-28T23:13:39.677Z,18.69
2022-10-28T23:16:08.435Z,18.67
2022-10-28T23:18:35.237Z,18.64
2022-10-28T23:21:11.556Z,18.60
2022-10-28T23:23:38.712Z,18.63
2022-10-28T23:26:05.769Z,18.61
2022-10-28T23:28:32.435Z,18.57
2022-10-28T23:31:03.910Z,18.52
2022-10-28T23:33:31.613Z,18.47
2022-10-28T23:35:59.405Z,18.44
2022-10-28T23:38:26.220Z,18.36
2022-10-28T23:40:59.931Z,18.33
2022-10-28T23:43:28.066Z,18.29
2022-10-28T23:45:55.118Z,18.26
2022-10-28T23:48:22.132Z,18.26
2022-10-28T23:50:49.068Z,18.26
2022-10-28T23:53:15.603Z,18.22
2022-10-28T23:55:44.343Z,18.19
2022-10-28T23:58:14.697Z,18.16
